createdAt,value
2022-11-05T00:00:03.329Z,7.60
2022-11-05T00:01:03.480Z,7.60
2022-11-05T00:02:03.448Z,7.60
2022-11-05T00:03:03.550Z,7.60
2022-11-05T00:04:03.670Z,7.50
2022-11-05T00:05:03.586Z,7.50
2022-11-05T00:06:03.570Z,7.60
2022-11-05T00:07:02.645Z,7.50
2022-11-05T00:08:02.706Z,7.50
2022-11-05T00:09:02.718Z,7.60
2022-11-05T00:10:02.909Z,7.60
2022-11-05T00:11:02.758Z,7.60
2022-11-05T00:12:02.811Z,7.50
2022-11-05T00:13:02.716Z,7.50
2022-11-05T00:14:02.710Z,7.60
2022-11-05T00:15:02.786Z,7.60
2022-11-05T00:16:02.902Z,7.50
2022-11-05T00:17:02.928Z,7.50
2022-11-05T00:18:02.914Z,7.50
2022-11-05T00:19:03.014Z,7.50
2022-11-05T00:20:02.903Z,7.60
2022-11-05T00:21:03.002Z,7.50
2022-11-05T00:22:02.994Z,7.50
2022-11-05T00:23:02.991Z,7.60
2022-11-05T00:24:03.433Z,7.50
2022-11-05T00:25:03.554Z,7.50
2022-11-05T00:26:02.907Z,7.50
2022-11-05T00:27:02.964Z,7.50
2022-11-05T00:28:02.972Z,7.50
2022-11-05T00:29:02.957Z,7.50
2022-11-05T00:30:02.993Z,7.50
2022-11-05T00:31:02.947Z,7.50
2022-11-05T00:32:03.013Z,7.50
2022-11-05T00:33:03.089Z,7.50
2022-11-05T00:34:03.197Z,7.50
2022-11-05T00:35:03.200Z,7.50
2022-11-05T00:36:03.245Z,7.50
2022-11-05T00:37:03.341Z,7.50
2022-11-05T00:38:03.455Z,7.50
2022-11-05T00:39:03.435Z,7.50
2022-11-05T00:40:03.437Z,7.50
2022-11-05T00:41:03.805Z,7.50
2022-11-05T00:42:02.700Z,7.50
2022-11-05T00:43:02.733Z,7.50
2022-11-05T00:44:02.740Z,7.50
2022-11-05T00:45:02.742Z,7.50
2022-11-05T00:46:02.718Z,7.50
2022-11-05T00:47:02.894Z,7.50
2022-11-05T00:48:02.946Z,7.50
2022-11-05T00:49:02.918Z,7.50
2022-11-05T00:50:02.948Z,7.50
2022-11-05T00:51:02.889Z,7.50
2022-11-05T00:52:02.890Z,7.50
2022-11-05T00:53:03.025Z,7.50
2022-11-05T00:54:03.340Z,7.50
2022-11-05T00:55:03.234Z,7.50
2022-11-05T00:56:03.312Z,7.50
2022-11-05T00:57:04.711Z,7.50
2022-11-05T00:58:03.387Z,7.50
2022-11-05T00:59:03.416Z,7.50
2022-11-05T01:00:03.514Z,7.60
2022-11-05T01:01:03.441Z,7.60
2022-11-05T01:02:03.645Z,7.60
2022-11-05T01:03:03.636Z,7.60
2022-11-05T01:04:03.522Z,7.60
2022-11-05T01:05:02.665Z,7.60
2022-11-05T01:06:02.622Z,7.60
2022-11-05T01:07:02.819Z,7.60
2022-11-05T01:08:02.807Z,7.60
2022-11-05T01:09:02.873Z,7.60
2022-11-05T01:10:03.117Z,7.60
2022-11-05T01:11:03.105Z,7.60
2022-11-05T01:12:03.181Z,7.60
2022-11-05T01:13:03.312Z,7.60
2022-11-05T01:14:03.433Z,7.60
2022-11-05T01:15:03.418Z,7.60
2022-11-05T01:16:03.537Z,7.60
2022-11-05T01:17:03.538Z,7.70
2022-11-05T01:18:03.598Z,7.70
2022-11-05T01:19:03.568Z,7.70
2022-11-05T01:20:03.600Z,7.70
2022-11-05T01:21:03.601Z,7.70
2022-11-05T01:22:03.659Z,7.70
2022-11-05T01:23:05.461Z,7.70
2022-11-05T01:24:03.612Z,7.70
2022-11-05T01:25:02.693Z,7.70
2022-11-05T01:26:02.859Z,7.70
2022-11-05T01:27:02.916Z,7.70
2022-11-05T01:28:03.072Z,7.70
2022-11-05T01:29:03.240Z,7.70
2022-11-05T01:30:03.328Z,7.70
2022-11-05T01:31:03.327Z,7.80
2022-11-05T01:32:03.330Z,7.80
2022-11-05T01:33:03.317Z,7.80
2022-11-05T01:34:03.293Z,7.70
2022-11-05T01:35:03.349Z,7.80
2022-11-05T01:36:03.351Z,7.80
2022-11-05T01:37:03.384Z,7.80
2022-11-05T01:38:03.378Z,7.80
2022-11-05T01:39:03.383Z,7.80
2022-11-05T01:40:03.317Z,7.80
2022-11-05T01:41:03.267Z,7.80
2022-11-05T01:42:03.358Z,7.80
2022-11-05T01:43:03.369Z,7.80
2022-11-05T01:44:03.315Z,7.80
2022-11-05T01:45:03.477Z,7.80
2022-11-05T01:46:04.779Z,7.80
2022-11-05T01:47:02.881Z,7.80
2022-11-05T01:48:02.946Z,7.80
2022-11-05T01:49:03.447Z,7.80
2022-11-05T01:50:03.069Z,7.80
2022-11-05T01:51:03.080Z,7.80
2022-11-05T01:52:03.154Z,7.80
2022-11-05T01:53:03.186Z,7.80
2022-11-05T01:54:03.254Z,7.80
2022-11-05T01:55:03.339Z,7.80
2022-11-05T01:56:03.313Z,7.80
2022-11-05T01:57:03.307Z,7.80
2022-11-05T01:58:03.395Z,7.80
2022-11-05T01:59:03.408Z,7.80
2022-11-05T02:00:03.406Z,7.80
2022-11-05T02:01:03.573Z,7.80
2022-11-05T02:02:02.764Z,7.80
2022-11-05T02:03:02.803Z,7.80
2022-11-05T02:04:02.826Z,7.80
2022-11-05T02:05:02.773Z,7.80
2022-11-05T02:06:02.846Z,7.80
2022-11-05T02:07:02.853Z,7.80
2022-11-05T02:08:02.889Z,7.80
2022-11-05T02:09:03.045Z,7.80
2022-11-05T02:10:03.007Z,7.70
2022-11-05T02:11:03.011Z,7.70
2022-11-05T02:12:02.927Z,7.70
2022-11-05T02:13:03.000Z,7.70
2022-11-05T02:14:03.167Z,7.70
2022-11-05T02:15:03.294Z,7.70
2022-11-05T02:16:03.226Z,7.70
2022-11-05T02:17:03.250Z,7.70
2022-11-05T02:18:03.500Z,7.70
2022-11-05T02:19:03.435Z,7.70
2022-11-05T02:20:03.482Z,7.70
2022-11-05T02:21:03.617Z,7.70
2022-11-05T02:22:03.550Z,7.70
2022-11-05T02:23:03.580Z,7.70
2022-11-05T02:24:03.496Z,7.70
2022-11-05T02:25:03.597Z,7.60
2022-11-05T02:26:03.560Z,7.70
2022-11-05T02:27:02.645Z,7.60
2022-11-05T02:28:02.742Z,7.60
2022-11-05T02:29:02.759Z,7.60
2022-11-05T02:30:02.742Z,7.60
2022-11-05T02:31:02.747Z,7.60
2022-11-05T02:32:02.783Z,7.60
2022-11-05T02:33:02.806Z,7.60
2022-11-05T02:34:02.879Z,7.60
2022-11-05T02:35:02.883Z,7.60
2022-11-05T02:36:02.794Z,7.50
2022-11-05T02:37:02.936Z,7.50
2022-11-05T02:38:02.955Z,7.50
2022-11-05T02:39:03.133Z,7.50
2022-11-05T02:40:02.990Z,7.50
2022-11-05T02:41:03.125Z,7.50
2022-11-05T02:42:05.114Z,7.40
2022-11-05T02:43:03.123Z,7.40
2022-11-05T02:44:03.214Z,7.40
2022-11-05T02:45:03.245Z,7.40
2022-11-05T02:46:03.267Z,7.40
2022-11-05T02:47:03.367Z,7.40
2022-11-05T02:48:03.296Z,7.40
2022-11-05T02:49:03.481Z,7.30
2022-11-05T02:50:03.599Z,7.30
2022-11-05T02:51:02.681Z,7.30
2022-11-05T02:52:02.657Z,7.30
2022-11-05T02:53:03.613Z,7.30
2022-11-05T02:54:02.659Z,7.30
2022-11-05T02:55:02.804Z,7.20
2022-11-05T02:56:03.642Z,7.20
2022-11-05T02:57:03.598Z,7.20
2022-11-05T02:58:02.669Z,7.20
2022-11-05T02:59:02.763Z,7.20
2022-11-05T03:00:02.713Z,7.20
2022-11-05T03:01:02.670Z,7.20
2022-11-05T03:02:02.753Z,7.10
2022-11-05T03:03:02.837Z,7.10
2022-11-05T03:04:02.762Z,7.10
2022-11-05T03:05:02.696Z,7.10
2022-11-05T03:06:02.634Z,7.00
2022-11-05T03:07:03.614Z,7.00
2022-11-05T03:08:02.710Z,7.00
2022-11-05T03:09:02.654Z,7.00
2022-11-05T03:10:02.627Z,7.00
2022-11-05T03:11:03.685Z,6.90
2022-11-05T03:12:02.700Z,6.90
2022-11-05T03:13:02.624Z,6.90
2022-11-05T03:14:02.631Z,6.90
2022-11-05T03:15:02.663Z,6.90
2022-11-05T03:16:02.663Z,6.90
2022-11-05T03:17:02.764Z,6.90
2022-11-05T03:18:02.754Z,6.90
2022-11-05T03:19:02.808Z,6.80
2022-11-05T03:20:02.847Z,6.80
2022-11-05T03:21:02.896Z,6.80
2022-11-05T03:22:02.860Z,6.80
2022-11-05T03:23:02.931Z,6.80
2022-11-05T03:24:03.050Z,6.80
2022-11-05T03:25:03.095Z,6.80
2022-11-05T03:26:03.121Z,6.80
2022-11-05T03:27:03.133Z,6.80
2022-11-05T03:28:03.267Z,6.70
2022-11-05T03:29:03.290Z,6.70
2022-11-05T03:30:03.259Z,6.70
2022-11-05T03:31:03.386Z,6.70
2022-11-05T03:32:03.388Z,6.70
2022-11-05T03:33:03.364Z,6.70
2022-11-05T03:34:03.323Z,6.70
2022-11-05T03:35:03.330Z,6.70
2022-11-05T03:36:03.298Z,6.70
2022-11-05T03:37:03.322Z,6.70
2022-11-05T03:38:03.250Z,6.70
2022-11-05T03:39:03.371Z,6.60
2022-11-05T03:40:03.428Z,6.60
2022-11-05T03:41:03.335Z,6.60
2022-11-05T03:42:03.411Z,6.60
2022-11-05T03:43:03.387Z,6.60
2022-11-05T03:44:03.402Z,6.60
2022-11-05T03:45:03.435Z,6.60
2022-11-05T03:46:03.568Z,6.60
2022-11-05T03:47:03.569Z,6.60
2022-11-05T03:48:02.600Z,6.60
2022-11-05T03:49:02.739Z,6.60
2022-11-05T03:50:02.723Z,6.60
2022-11-05T03:51:02.623Z,6.60
2022-11-05T03:52:02.705Z,6.50
2022-11-05T03:53:02.843Z,6.50
2022-11-05T03:54:02.796Z,6.50
2022-11-05T03:55:02.818Z,6.50
2022-11-05T03:56:02.817Z,6.50
2022-11-05T03:57:02.823Z,6.50
2022-11-05T03:58:02.888Z,6.50
2022-11-05T03:59:02.908Z,6.50
2022-11-05T04:00:03.020Z,6.50
2022-11-05T04:01:03.126Z,6.50
2022-11-05T04:02:03.310Z,6.50
2022-11-05T04:03:03.317Z,6.50
2022-11-05T04:04:03.281Z,6.40
2022-11-05T04:05:03.372Z,6.40
2022-11-05T04:06:03.368Z,6.40
2022-11-05T04:07:03.420Z,6.40
2022-11-05T04:08:03.416Z,6.40
2022-11-05T04:09:03.509Z,6.40
2022-11-05T04:10:03.448Z,6.40
2022-11-05T04:11:03.503Z,6.30
2022-11-05T04:12:03.512Z,6.30
2022-11-05T04:13:03.584Z,6.30
2022-11-05T04:14:03.493Z,6.30
2022-11-05T04:15:03.541Z,6.30
2022-11-05T04:16:03.563Z,6.30
2022-11-05T04:17:03.601Z,6.30
2022-11-05T04:18:02.763Z,6.20
2022-11-05T04:19:02.713Z,6.20
2022-11-05T04:20:02.698Z,6.20
2022-11-05T04:21:02.679Z,6.20
2022-11-05T04:22:02.672Z,6.20
2022-11-05T04:23:02.862Z,6.20
2022-11-05T04:24:02.829Z,6.20
2022-11-05T04:25:02.794Z,6.20
2022-11-05T04:26:02.756Z,6.20
2022-11-05T04:27:02.812Z,6.20
2022-11-05T04:28:02.742Z,6.20
2022-11-05T04:29:07.723Z,6.20
2022-11-05T04:30:02.791Z,6.20
2022-11-05T04:31:02.886Z,6.20
2022-11-05T04:32:02.924Z,6.20
2022-11-05T04:33:03.015Z,6.20
2022-11-05T04:34:02.967Z,6.20
2022-11-05T04:35:03.079Z,6.20
2022-11-05T04:36:03.243Z,6.20
2022-11-05T04:37:03.297Z,6.20
2022-11-05T04:38:03.328Z,6.20
2022-11-05T04:39:03.381Z,6.30
2022-11-05T04:40:03.419Z,6.30
2022-11-05T04:41:03.331Z,6.30
2022-11-05T04:42:03.512Z,6.30
2022-11-05T04:43:03.470Z,6.30
2022-11-05T04:44:03.496Z,6.30
2022-11-05T04:45:03.452Z,6.30
2022-11-05T04:46:03.538Z,6.30
2022-11-05T04:47:02.658Z,6.30
2022-11-05T04:48:02.751Z,6.30
2022-11-05T04:49:02.710Z,6.30
2022-11-05T04:50:02.676Z,6.30
2022-11-05T04:51:02.769Z,6.30
2022-11-05T04:52:02.707Z,6.30
2022-11-05T04:53:02.812Z,6.30
2022-11-05T04:54:02.900Z,6.30
2022-11-05T04:55:02.916Z,6.30
2022-11-05T04:56:02.918Z,6.30
2022-11-05T04:57:02.847Z,6.30
2022-11-05T04:58:02.907Z,6.30
2022-11-05T04:59:03.042Z,6.30
2022-11-05T05:00:03.040Z,6.30
2022-11-05T05:01:03.074Z,6.30
2022-11-05T05:02:03.208Z,6.30
2022-11-05T05:03:03.263Z,6.30
2022-11-05T05:04:03.302Z,6.30
2022-11-05T05:05:03.236Z,6.20
2022-11-05T05:06:03.872Z,6.20
2022-11-05T05:07:03.432Z,6.20
2022-11-05T05:08:03.501Z,6.20
2022-11-05T05:09:03.465Z,6.20
2022-11-05T05:10:03.504Z,6.20
2022-11-05T05:11:03.549Z,6.20
2022-11-05T05:12:03.556Z,6.20
2022-11-05T05:13:03.553Z,6.20
2022-11-05T05:14:02.669Z,6.20
2022-11-05T05:15:02.767Z,6.20
2022-11-05T05:16:02.806Z,6.20
2022-11-05T05:17:02.978Z,6.20
2022-11-05T05:18:02.957Z,6.20
2022-11-05T05:19:02.954Z,6.20
2022-11-05T05:20:02.956Z,6.20
2022-11-05T05:21:02.940Z,6.20
2022-11-05T05:22:03.047Z,6.20
2022-11-05T05:23:03.135Z,6.20
2022-11-05T05:24:03.115Z,6.20
2022-11-05T05:25:03.490Z,6.20
2022-11-05T05:26:03.504Z,6.10
2022-11-05T05:27:03.510Z,6.10
2022-11-05T05:28:02.655Z,6.10
2022-11-05T05:29:02.728Z,6.10
2022-11-05T05:30:02.777Z,6.10
2022-11-05T05:31:02.690Z,6.10
2022-11-05T05:32:02.807Z,6.10
2022-11-05T05:33:02.757Z,6.10
2022-11-05T05:34:02.749Z,6.10
2022-11-05T05:35:02.748Z,6.10
2022-11-05T05:36:05.788Z,6.10
2022-11-05T05:37:02.698Z,6.10
2022-11-05T05:38:02.691Z,6.10
2022-11-05T05:39:02.729Z,6.10
2022-11-05T05:40:02.727Z,6.10
2022-11-05T05:41:02.889Z,6.10
2022-11-05T05:42:03.121Z,6.10
2022-11-05T05:43:03.203Z,6.10
2022-11-05T05:44:03.289Z,6.10
2022-11-05T05:45:03.291Z,6.10
2022-11-05T05:46:03.291Z,6.10
2022-11-05T05:47:03.198Z,6.10
2022-11-05T05:48:03.297Z,6.10
2022-11-05T05:49:06.639Z,6.10
2022-11-05T05:50:03.271Z,6.20
2022-11-05T05:51:03.331Z,6.20
2022-11-05T05:52:03.388Z,6.20
2022-11-05T05:53:03.331Z,6.20
2022-11-05T05:54:03.377Z,6.20
2022-11-05T05:55:03.391Z,6.20
2022-11-05T05:56:03.436Z,6.20
2022-11-05T05:57:03.414Z,6.20
2022-11-05T05:58:03.425Z,6.20
2022-11-05T05:59:03.357Z,6.20
2022-11-05T06:00:03.492Z,6.20
2022-11-05T06:01:03.441Z,6.20
2022-11-05T06:02:03.701Z,6.20
2022-11-05T06:03:03.603Z,6.20
2022-11-05T06:04:02.739Z,6.20
2022-11-05T06:05:02.796Z,6.20
2022-11-05T06:06:02.803Z,6.20
2022-11-05T06:07:02.925Z,6.20
2022-11-05T06:08:03.002Z,6.20
2022-11-05T06:09:02.947Z,6.20
2022-11-05T06:10:02.937Z,6.20
2022-11-05T06:11:03.012Z,6.20
2022-11-05T06:12:02.944Z,6.10
2022-11-05T06:13:03.070Z,6.10
2022-11-05T06:14:03.135Z,6.10
2022-11-05T06:15:03.065Z,6.10
2022-11-05T06:16:03.162Z,6.10
2022-11-05T06:17:03.271Z,6.10
2022-11-05T06:18:03.306Z,6.10
2022-11-05T06:19:03.330Z,6.10
2022-11-05T06:20:03.368Z,6.10
2022-11-05T06:21:03.296Z,6.10
2022-11-05T06:22:03.403Z,6.10
2022-11-05T06:23:03.612Z,6.10
2022-11-05T06:24:03.649Z,6.10
2022-11-05T06:25:02.652Z,6.10
2022-11-05T06:26:02.658Z,6.10
2022-11-05T06:27:02.669Z,6.10
2022-11-05T06:28:02.658Z,6.10
2022-11-05T06:29:02.667Z,6.10
2022-11-05T06:30:02.676Z,6.10
2022-11-05T06:31:02.801Z,6.10
2022-11-05T06:32:02.794Z,6.10
2022-11-05T06:33:02.792Z,6.10
2022-11-05T06:34:02.847Z,6.10
2022-11-05T06:35:02.789Z,6.10
2022-11-05T06:36:02.686Z,6.10
2022-11-05T06:37:02.689Z,6.20
2022-11-05T06:38:02.766Z,6.20
2022-11-05T06:39:02.788Z,6.20
2022-11-05T06:40:02.728Z,6.20
2022-11-05T06:41:05.770Z,6.20
2022-11-05T06:42:19.160Z,6.20
2022-11-05T06:43:02.802Z,6.20
2022-11-05T06:44:02.856Z,6.20
2022-11-05T06:45:02.783Z,6.20
2022-11-05T06:46:02.943Z,6.20
2022-11-05T06:47:03.027Z,6.20
2022-11-05T06:48:02.978Z,6.20
2022-11-05T06:49:02.985Z,6.30
2022-11-05T06:50:03.038Z,6.30
2022-11-05T06:51:02.936Z,6.30
2022-11-05T06:52:02.985Z,6.30
2022-11-05T06:53:02.988Z,6.30
2022-11-05T06:54:03.076Z,6.30
2022-11-05T06:55:03.052Z,6.30
2022-11-05T06:56:03.049Z,6.40
2022-11-05T06:57:03.112Z,6.40
2022-11-05T06:58:03.040Z,6.40
2022-11-05T06:59:03.066Z,6.40
2022-11-05T07:00:07.430Z,6.40
2022-11-05T07:01:03.176Z,6.40
2022-11-05T07:02:03.150Z,6.50
2022-11-05T07:03:03.049Z,6.50
2022-11-05T07:04:03.194Z,6.50
2022-11-05T07:05:03.272Z,6.50
2022-11-05T07:06:03.269Z,6.50
2022-11-05T07:07:03.404Z,6.50
2022-11-05T07:08:03.410Z,6.50
2022-11-05T07:09:03.489Z,6.60
2022-11-05T07:10:03.598Z,6.60
2022-11-05T07:11:02.668Z,6.60
2022-11-05T07:12:02.744Z,6.60
2022-11-05T07:13:07.693Z,6.60
2022-11-05T07:14:02.755Z,6.70
2022-11-05T07:15:02.697Z,6.70
2022-11-05T07:16:02.778Z,6.70
2022-11-05T07:17:02.777Z,6.70
2022-11-05T07:18:02.727Z,6.70
2022-11-05T07:19:02.998Z,6.80
2022-11-05T07:20:02.784Z,6.80
2022-11-05T07:21:02.887Z,6.80
2022-11-05T07:22:02.878Z,6.80
2022-11-05T07:23:02.859Z,6.80
2022-11-05T07:24:02.908Z,6.90
2022-11-05T07:25:02.883Z,6.90
2022-11-05T07:26:02.959Z,6.90
2022-11-05T07:27:02.944Z,6.90
2022-11-05T07:28:02.924Z,7.00
2022-11-05T07:29:02.920Z,7.00
2022-11-05T07:30:02.871Z,7.00
2022-11-05T07:31:02.846Z,7.10
2022-11-05T07:32:02.872Z,7.10
2022-11-05T07:33:02.750Z,7.10
2022-11-05T07:34:02.896Z,7.10
2022-11-05T07:35:02.814Z,7.20
2022-11-05T07:36:02.862Z,7.20
2022-11-05T07:37:02.768Z,7.20
2022-11-05T07:38:02.860Z,7.30
2022-11-05T07:39:03.086Z,7.30
2022-11-05T07:40:02.950Z,7.30
2022-11-05T07:41:03.011Z,7.30
2022-11-05T07:42:03.149Z,7.30
2022-11-05T07:43:03.062Z,7.40
2022-11-05T07:44:03.040Z,7.40
2022-11-05T07:45:03.033Z,7.40
2022-11-05T07:46:02.930Z,7.40
2022-11-05T07:47:03.015Z,7.50
2022-11-05T07:48:03.088Z,7.50
2022-11-05T07:49:03.018Z,7.50
2022-11-05T07:50:03.085Z,7.60
2022-11-05T07:51:03.032Z,7.60
2022-11-05T07:52:03.127Z,7.60
2022-11-05T07:53:02.997Z,7.60
2022-11-05T07:54:02.893Z,7.60
2022-11-05T07:55:02.880Z,7.60
2022-11-05T07:56:02.920Z,7.70
2022-11-05T07:57:02.895Z,7.70
2022-11-05T07:58:02.892Z,7.70
2022-11-05T07:59:02.953Z,7.70
2022-11-05T08:00:02.956Z,7.70
2022-11-05T08:01:03.177Z,7.70
2022-11-05T08:02:03.276Z,7.70
2022-11-05T08:03:07.559Z,7.80
2022-11-05T08:04:03.355Z,7.80
2022-11-05T08:05:03.284Z,7.80
2022-11-05T08:06:03.268Z,7.80
2022-11-05T08:07:03.385Z,7.80
2022-11-05T08:08:03.454Z,7.80
2022-11-05T08:09:03.564Z,7.90
2022-11-05T08:10:02.675Z,7.90
2022-11-05T08:11:03.633Z,7.90
2022-11-05T08:12:03.252Z,8.00
2022-11-05T08:13:02.684Z,8.00
2022-11-05T08:14:02.812Z,8.00
2022-11-05T08:15:02.851Z,8.00
2022-11-05T08:16:02.872Z,8.00
2022-11-05T08:17:02.977Z,8.10
2022-11-05T08:18:02.805Z,8.10
2022-11-05T08:19:02.768Z,8.10
2022-11-05T08:20:02.775Z,8.10
2022-11-05T08:21:02.852Z,8.20
2022-11-05T08:22:02.774Z,8.20
2022-11-05T08:23:02.809Z,8.20
2022-11-05T08:24:02.804Z,8.20
2022-11-05T08:25:06.539Z,8.20
2022-11-05T08:26:02.794Z,8.30
2022-11-05T08:27:02.861Z,8.30
2022-11-05T08:28:02.997Z,8.30
2022-11-05T08:29:02.925Z,8.30
2022-11-05T08:30:03.099Z,8.30
2022-11-05T08:31:03.300Z,8.30
2022-11-05T08:32:03.040Z,8.40
2022-11-05T08:33:03.172Z,8.40
2022-11-05T08:34:03.274Z,8.40
2022-11-05T08:35:03.312Z,8.40
2022-11-05T08:36:03.331Z,8.40
2022-11-05T08:37:03.351Z,8.50
2022-11-05T08:38:03.386Z,8.50
2022-11-05T08:39:03.451Z,8.50
2022-11-05T08:40:03.539Z,8.50
2022-11-05T08:41:03.552Z,8.60
2022-11-05T08:42:02.602Z,8.60
2022-11-05T08:43:03.635Z,8.60
2022-11-05T08:44:02.710Z,8.60
2022-11-05T08:45:02.710Z,8.60
2022-11-05T08:46:02.643Z,8.60
2022-11-05T08:47:02.740Z,8.70
2022-11-05T08:48:02.790Z,8.70
2022-11-05T08:49:02.907Z,8.70
2022-11-05T08:50:02.874Z,8.70
2022-11-05T08:51:02.782Z,8.70
2022-11-05T08:52:02.790Z,8.80
2022-11-05T08:53:02.837Z,8.80
2022-11-05T08:54:02.730Z,8.80
2022-11-05T08:55:02.779Z,8.80
2022-11-05T08:56:02.756Z,8.80
2022-11-05T08:57:02.722Z,8.90
2022-11-05T08:58:02.792Z,8.80
2022-11-05T08:59:02.875Z,8.90
2022-11-05T09:00:02.944Z,8.90
2022-11-05T09:01:05.124Z,8.90
2022-11-05T09:02:03.017Z,8.90
2022-11-05T09:03:02.925Z,9.00
2022-11-05T09:04:02.997Z,9.00
2022-11-05T09:05:03.010Z,9.00
2022-11-05T09:06:03.022Z,9.00
2022-11-05T09:07:03.083Z,9.00
2022-11-05T09:08:03.165Z,9.00
2022-11-05T09:09:03.283Z,9.10
2022-11-05T09:10:03.174Z,9.10
2022-11-05T09:11:03.243Z,9.10
2022-11-05T09:12:12.025Z,9.10
2022-11-05T09:13:03.288Z,9.10
2022-11-05T09:14:03.220Z,9.10
2022-11-05T09:15:03.291Z,9.10
2022-11-05T09:16:03.338Z,9.20
2022-11-05T09:17:03.343Z,9.20
2022-11-05T09:18:03.360Z,9.20
2022-11-05T09:19:03.509Z,9.20
2022-11-05T09:20:03.446Z,9.20
2022-11-05T09:21:03.498Z,9.20
2022-11-05T09:22:03.571Z,9.20
2022-11-05T09:23:03.518Z,9.20
2022-11-05T09:24:03.454Z,9.30
2022-11-05T09:25:03.433Z,9.30
2022-11-05T09:26:03.546Z,9.30
2022-11-05T09:27:03.610Z,9.30
2022-11-05T09:28:02.619Z,9.30
2022-11-05T09:29:02.687Z,9.30
2022-11-05T09:30:02.649Z,9.30
2022-11-05T09:31:02.712Z,9.30
2022-11-05T09:32:02.729Z,9.30
2022-11-05T09:33:02.668Z,9.30
2022-11-05T09:34:02.814Z,9.40
2022-11-05T09:35:02.733Z,9.40
2022-11-05T09:36:02.751Z,9.40
2022-11-05T09:37:02.788Z,9.40
2022-11-05T09:38:02.790Z,9.40
2022-11-05T09:39:02.698Z,9.40
2022-11-05T09:40:02.783Z,9.50
2022-11-05T09:41:02.697Z,9.50
2022-11-05T09:42:02.781Z,9.50
2022-11-05T09:43:02.751Z,9.50
2022-11-05T09:44:02.883Z,9.60
2022-11-05T09:45:02.884Z,9.60
2022-11-05T09:46:02.909Z,9.60
2022-11-05T09:47:03.043Z,9.60
2022-11-05T09:48:02.935Z,9.60
2022-11-05T09:49:02.921Z,9.70
2022-11-05T09:50:03.088Z,9.70
2022-11-05T09:51:03.048Z,9.70
2022-11-05T09:52:02.981Z,9.70
2022-11-05T09:53:03.130Z,9.70
2022-11-05T09:54:03.166Z,9.70
2022-11-05T09:55:03.178Z,9.70
2022-11-05T09:56:03.278Z,9.70
2022-11-05T09:57:03.245Z,9.70
2022-11-05T09:58:03.292Z,9.70
2022-11-05T09:59:03.358Z,9.80
2022-11-05T10:00:03.443Z,9.80
2022-11-05T10:01:03.522Z,9.80
2022-11-05T10:02:03.610Z,9.80
2022-11-05T10:03:03.376Z,9.90
2022-11-05T10:04:03.381Z,9.90
2022-11-05T10:05:08.211Z,9.90
2022-11-05T10:06:03.482Z,9.90
2022-11-05T10:07:03.655Z,9.90
2022-11-05T10:08:03.571Z,9.90
2022-11-05T10:09:03.525Z,10.00
2022-11-05T10:10:03.519Z,10.00
2022-11-05T10:11:03.564Z,10.00
2022-11-05T10:12:03.552Z,10.10
2022-11-05T10:13:03.603Z,10.10
2022-11-05T10:14:02.711Z,10.20
2022-11-05T10:15:02.680Z,10.20
2022-11-05T10:16:02.760Z,10.30
2022-11-05T10:17:02.947Z,10.40
2022-11-05T10:18:02.979Z,10.40
2022-11-05T10:19:02.995Z,10.50
2022-11-05T10:20:02.991Z,10.60
2022-11-05T10:21:03.022Z,10.60
2022-11-05T10:22:07.043Z,10.70
2022-11-05T10:23:03.242Z,10.80
2022-11-05T10:24:03.204Z,10.90
2022-11-05T10:25:03.192Z,10.90
2022-11-05T10:26:03.184Z,11.00
2022-11-05T10:27:03.222Z,11.10
2022-11-05T10:28:03.179Z,11.10
2022-11-05T10:29:03.335Z,11.20
2022-11-05T10:30:03.251Z,11.20
2022-11-05T10:31:03.208Z,11.20
2022-11-05T10:32:03.261Z,11.30
2022-11-05T10:33:03.351Z,11.30
2022-11-05T10:34:03.382Z,11.30
2022-11-05T10:35:03.547Z,11.30
2022-11-05T10:36:03.584Z,11.30
2022-11-05T10:37:03.517Z,11.30
2022-11-05T10:38:03.483Z,11.30
2022-11-05T10:39:03.580Z,11.30
2022-11-05T10:40:03.522Z,11.30
2022-11-05T10:41:02.616Z,11.30
2022-11-05T10:42:02.773Z,11.30
2022-11-05T10:43:02.731Z,11.30
2022-11-05T10:44:02.797Z,11.30
2022-11-05T10:45:02.751Z,11.30
2022-11-05T10:46:02.829Z,11.30
2022-11-05T10:47:02.943Z,11.20
2022-11-05T10:48:03.002Z,11.20
2022-11-05T10:49:02.961Z,11.20
2022-11-05T10:50:02.976Z,11.10
2022-11-05T10:51:02.933Z,11.10
2022-11-05T10:52:02.904Z,11.10
2022-11-05T10:53:03.015Z,11.10
2022-11-05T10:54:03.146Z,11.10
2022-11-05T10:55:03.200Z,11.10
2022-11-05T10:56:03.227Z,11.00
2022-11-05T10:57:03.275Z,11.00
2022-11-05T10:58:03.279Z,11.00
2022-11-05T10:59:05.631Z,11.00
2022-11-05T11:00:03.274Z,11.00
2022-11-05T11:01:03.431Z,11.00
2022-11-05T11:02:03.482Z,10.90
2022-11-05T11:03:03.457Z,11.00
2022-11-05T11:04:03.525Z,10.90
2022-11-05T11:05:03.524Z,10.90
2022-11-05T11:06:03.516Z,10.90
2022-11-05T11:07:02.667Z,10.90
2022-11-05T11:08:03.614Z,10.90
2022-11-05T11:09:03.542Z,10.90
2022-11-05T11:10:03.600Z,10.90
2022-11-05T11:11:03.487Z,10.90
2022-11-05T11:12:03.481Z,10.90
2022-11-05T11:13:03.544Z,10.90
2022-11-05T11:14:02.652Z,10.90
2022-11-05T11:15:02.691Z,10.90
2022-11-05T11:16:02.878Z,10.90
2022-11-05T11:17:02.905Z,10.90
2022-11-05T11:18:02.914Z,11.00
2022-11-05T11:19:02.990Z,11.00
2022-11-05T11:20:02.998Z,11.00
2022-11-05T11:21:02.883Z,11.00
2022-11-05T11:22:02.981Z,11.00
2022-11-05T11:23:03.094Z,11.00
2022-11-05T11:24:03.088Z,11.00
2022-11-05T11:25:03.189Z,11.00
2022-11-05T11:26:03.128Z,11.00
2022-11-05T11:27:03.031Z,11.00
2022-11-05T11:28:03.093Z,11.00
2022-11-05T11:29:03.018Z,11.00
2022-11-05T11:30:03.138Z,11.00
2022-11-05T11:31:03.171Z,11.00
2022-11-05T11:32:03.170Z,11.00
2022-11-05T11:33:03.226Z,11.00
2022-11-05T11:34:03.183Z,11.00
2022-11-05T11:35:03.138Z,10.90
2022-11-05T11:36:03.069Z,11.00
2022-11-05T11:37:03.098Z,11.00
2022-11-05T11:38:03.136Z,11.00
2022-11-05T11:39:03.113Z,11.00
2022-11-05T11:40:03.174Z,11.00
2022-11-05T11:41:03.449Z,11.00
2022-11-05T11:42:03.470Z,11.00
2022-11-05T11:43:03.404Z,11.10
2022-11-05T11:44:03.490Z,11.10
2022-11-05T11:45:03.513Z,11.10
2022-11-05T11:46:06.220Z,11.10
2022-11-05T11:47:03.431Z,11.10
2022-11-05T11:48:03.460Z,11.10
2022-11-05T11:49:03.566Z,11.20
2022-11-05T11:50:03.527Z,11.20
2022-11-05T11:51:03.562Z,11.20
2022-11-05T11:52:02.688Z,11.20
2022-11-05T11:53:02.683Z,11.20
2022-11-05T11:54:02.752Z,11.20
2022-11-05T11:55:02.795Z,11.20
2022-11-05T11:56:02.793Z,11.20
2022-11-05T11:57:02.758Z,11.20
2022-11-05T11:58:02.793Z,11.20
2022-11-05T11:59:02.798Z,11.20
2022-11-05T12:00:08.634Z,11.20
2022-11-05T12:01:02.869Z,11.20
2022-11-05T12:02:02.896Z,11.20
2022-11-05T12:03:02.929Z,11.20
2022-11-05T12:04:02.811Z,11.20
2022-11-05T12:05:02.885Z,11.20
2022-11-05T12:06:02.870Z,11.20
2022-11-05T12:07:02.704Z,11.20
2022-11-05T12:08:02.692Z,11.20
2022-11-05T12:09:06.361Z,11.20
2022-11-05T12:10:02.862Z,11.20
2022-11-05T12:11:02.828Z,11.20
2022-11-05T12:12:02.882Z,11.20
2022-11-05T12:13:02.862Z,11.20
2022-11-05T12:14:03.105Z,11.20
2022-11-05T12:15:03.251Z,11.20
2022-11-05T12:16:03.214Z,11.10
2022-11-05T12:17:03.336Z,11.10
2022-11-05T12:18:03.470Z,11.10
2022-11-05T12:19:03.258Z,11.10
2022-11-05T12:20:03.319Z,11.00
2022-11-05T12:21:03.417Z,11.00
2022-11-05T12:22:03.486Z,11.00
2022-11-05T12:23:03.511Z,11.00
2022-11-05T12:24:03.514Z,11.00
2022-11-05T12:25:03.572Z,11.00
2022-11-05T12:26:03.443Z,11.00
2022-11-05T12:27:03.451Z,11.00
2022-11-05T12:28:03.475Z,11.00
2022-11-05T12:29:18.200Z,11.00
2022-11-05T12:30:03.578Z,11.00
2022-11-05T12:31:02.680Z,11.00
2022-11-05T12:32:02.751Z,11.00
2022-11-05T12:33:02.863Z,11.10
2022-11-05T12:34:02.924Z,11.10
2022-11-05T12:35:02.990Z,11.10
2022-11-05T12:36:02.924Z,11.10
2022-11-05T12:37:02.938Z,11.10
2022-11-05T12:38:02.947Z,11.10
2022-11-05T12:39:03.139Z,11.10
2022-11-05T12:40:03.110Z,11.20
2022-11-05T12:41:03.141Z,11.20
2022-11-05T12:42:03.191Z,11.20
2022-11-05T12:43:06.465Z,11.20
2022-11-05T12:44:03.260Z,11.30
2022-11-05T12:45:03.218Z,11.30
2022-11-05T12:46:03.222Z,11.30
2022-11-05T12:47:03.316Z,11.30
2022-11-05T12:48:03.303Z,11.30
2022-11-05T12:49:03.293Z,11.40
2022-11-05T12:50:03.328Z,11.40
2022-11-05T12:51:03.341Z,11.40
2022-11-05T12:52:03.612Z,11.40
2022-11-05T12:53:03.615Z,11.40
2022-11-05T12:54:02.691Z,11.40
2022-11-05T12:55:02.676Z,11.40
2022-11-05T12:56:03.542Z,11.40
2022-11-05T12:57:02.640Z,11.40
2022-11-05T12:58:02.705Z,11.40
2022-11-05T12:59:02.751Z,11.40
2022-11-05T13:00:02.702Z,11.40
2022-11-05T13:01:02.789Z,11.40
2022-11-05T13:02:02.826Z,11.40
2022-11-05T13:03:02.714Z,11.40
2022-11-05T13:04:02.700Z,11.40
2022-11-05T13:05:02.763Z,11.40
2022-11-05T13:06:05.791Z,11.40
2022-11-05T13:07:02.680Z,11.40
2022-11-05T13:08:02.835Z,11.40
2022-11-05T13:09:03.238Z,11.40
2022-11-05T13:10:03.257Z,11.40
2022-11-05T13:11:03.288Z,11.40
2022-11-05T13:12:03.296Z,11.40